Time;durP1;ratioP1;P1;durP2;ratioP2;P2;SDS_P1;SDS_P2;PMS_P1;PMS_P2;Temp;Humidity;BMP_temperature;BMP_pressure;BME280_temperature;BME280_humidity;BME280_pressure;Samples;Min_cycle;Max_cycle;Signal;HPM_P1;HPM_P2
2022/09/03 00:02:25;;;;;;;1.58;0.85;;;;;;;;;;4940408;29;20039;-96
2022/09/03 00:05:16;;;;;;;1.73;0.80;;;;;;;;;;4941224;29;20057;-96
2022/09/03 00:07:56;;;;;;;1.88;0.95;;;;;;;;;;4956828;29;20486;-96
2022/09/03 00:10:52;;;;;;;3.97;0.93;;;;;;;;;;4940173;29;20494;-96
2022/09/03 00:13:36;;;;;;;1.92;1.00;;;;;;;;;;4940478;29;20066;-95
2022/09/03 00:16:11;;;;;;;3.67;1.20;;;;;;;;;;4943045;29;20130;-95
2022/09/03 00:18:48;;;;;;;2.03;0.80;;;;;;;;;;4944351;29;20047;-95
2022/09/03 00:21:33;;;;;;;1.90;1.00;;;;;;;;;;4943735;29;20050;-95
2022/09/03 00:24:12;;;;;;;1.98;0.95;;;;;;;;;;4913034;29;20098;-95
2022/09/03 00:26:53;;;;;;;2.85;1.27;;;;;;;;;;4943577;29;20040;-95
2022/09/03 00:29:24;;;;;;;2.30;0.90;;;;;;;;;;4942697;29;20502;-96
2022/09/03 00:32:05;;;;;;;2.40;0.90;;;;;;;;;;4975437;28;20046;-95
2022/09/03 00:34:40;;;;;;;3.00;1.00;;;;;;;;;;4944070;29;20047;-95
2022/09/03 00:37:12;;;;;;;4.00;0.90;;;;;;;;;;4928405;29;20047;-95
2022/09/03 00:39:42;;;;;;;2.72;1.00;;;;;;;;;;4928781;29;20043;-95
2022/09/03 00:42:29;;;;;;;3.63;0.80;;;;;;;;;;4943837;29;20051;-96
2022/09/03 00:45:24;;;;;;;1.15;0.70;;;;;;;;;;4960903;23;20031;-93
2022/09/03 00:57:58;;;;;;;3.47;1.00;;;;;;;;;;4916408;29;20592;-83
2022/09/03 01:01:53;;;;;;;1.77;0.90;;;;;;;;;;4837327;29;20160;-85
2022/09/03 01:09:53;;;;;;;2.97;1.00;;;;;;;;;;4814568;29;20043;-84
2022/09/03 01:22:04;;;;;;;1.98;0.90;;;;;;;;;;4743141;30;20044;-84
2022/09/03 01:25:09;;;;;;;1.45;0.80;;;;;;;;;;4730919;30;20052;-84
2022/09/03 01:29:10;;;;;;;3.45;1.10;;;;;;;;;;4744564;30;20094;-83
2022/09/03 01:32:02;;;;;;;2.20;1.00;;;;;;;;;;4757014;30;20060;-83
2022/09/03 01:48:09;;;;;;;2.05;1.00;;;;;;;;;;4713638;30;20058;-84
2022/09/03 01:52:03;;;;;;;1.70;0.98;;;;;;;;;;4760125;30;20061;-85
2022/09/03 01:55:21;;;;;;;4.15;1.10;;;;;;;;;;4872067;23;20054;-92
2022/09/03 01:58:01;;;;;;;2.70;1.30;;;;;;;;;;4950108;28;20497;-93
2022/09/03 02:00:33;;;;;;;2.38;1.13;;;;;;;;;;4945888;28;20050;-93
2022/09/03 02:03:06;;;;;;;2.17;0.90;;;;;;;;;;4943215;28;20038;-93
2022/09/03 02:05:42;;;;;;;1.67;0.88;;;;;;;;;;4944292;28;20414;-93
2022/09/03 02:08:10;;;;;;;3.25;0.98;;;;;;;;;;4958497;28;20061;-93
2022/09/03 02:10:51;;;;;;;2.58;1.10;;;;;;;;;;4950637;28;20046;-96
2022/09/03 02:16:34;;;;;;;1.85;0.90;;;;;;;;;;4957727;28;20070;-96
2022/09/03 02:19:16;;;;;;;1.88;0.85;;;;;;;;;;4936171;29;20051;-96
2022/09/03 02:26:01;;;;;;;2.42;0.98;;;;;;;;;;4952245;29;20058;-96
2022/09/03 02:28:39;;;;;;;3.78;1.27;;;;;;;;;;4909513;29;20480;-92
2022/09/03 02:31:13;;;;;;;4.05;1.20;;;;;;;;;;4956754;29;20023;-96
2022/09/03 02:34:05;;;;;;;2.50;1.40;;;;;;;;;;4927843;29;20129;-96
2022/09/03 02:36:56;;;;;;;3.03;1.20;;;;;;;;;;4927982;29;20035;-96
2022/09/03 02:39:53;;;;;;;2.53;1.00;;;;;;;;;;4916211;29;20048;-96
2022/09/03 02:42:31;;;;;;;2.22;1.00;;;;;;;;;;4919478;29;20058;-96
2022/09/03 02:45:46;;;;;;;3.22;1.20;;;;;;;;;;4891872;29;20100;-96
2022/09/03 02:48:44;;;;;;;1.73;0.90;;;;;;;;;;4901681;29;20063;-93
2022/09/03 02:51:35;;;;;;;2.13;1.08;;;;;;;;;;4919733;29;20040;-96
2022/09/03 02:58:18;;;;;;;6.47;1.08;;;;;;;;;;4920466;29;20059;-93
2022/09/03 03:00:48;;;;;;;4.07;1.00;;;;;;;;;;4917184;29;20757;-93
2022/09/03 03:03:16;;;;;;;2.97;1.10;;;;;;;;;;4884244;29;20210;-93
2022/09/03 03:05:48;;;;;;;1.65;1.00;;;;;;;;;;4899647;29;20048;-93
2022/09/03 03:08:44;;;;;;;1.98;0.90;;;;;;;;;;4916771;29;20076;-93
2022/09/03 03:11:14;;;;;;;1.85;1.10;;;;;;;;;;4930251;29;20157;-93
2022/09/03 03:13:45;;;;;;;2.08;1.00;;;;;;;;;;4922944;29;20059;-93
2022/09/03 03:16:15;;;;;;;2.72;1.00;;;;;;;;;;4938525;29;20386;-93
2022/09/03 03:19:14;;;;;;;3.08;0.95;;;;;;;;;;4942254;29;20445;-93
2022/09/03 03:21:42;;;;;;;4.22;1.20;;;;;;;;;;4922399;29;20051;-93
2022/09/03 03:24:16;;;;;;;1.92;1.05;;;;;;;;;;4937964;29;20043;-93
2022/09/03 03:29:41;;;;;;;2.38;1.10;;;;;;;;;;4951083;29;20055;-96
2022/09/03 03:32:39;;;;;;;3.13;1.20;;;;;;;;;;4903638;29;20083;-96
2022/09/03 03:35:19;;;;;;;2.30;1.08;;;;;;;;;;4903917;29;20044;-96
2022/09/03 03:38:28;;;;;;;3.35;1.15;;;;;;;;;;4820028;29;20046;-96
2022/09/03 03:41:26;;;;;;;3.78;1.23;;;;;;;;;;4845343;29;20121;-96
2022/09/03 03:44:42;;;;;;;4.72;1.45;;;;;;;;;;4845623;29;20056;-96
2022/09/03 03:47:50;;;;;;;2.08;1.00;;;;;;;;;;4849463;29;20046;-96
2022/09/03 03:50:47;;;;;;;2.80;1.10;;;;;;;;;;4821879;29;20046;-94
2022/09/03 03:53:19;;;;;;;3.50;1.40;;;;;;;;;;4862408;29;20461;-93
2022/09/03 03:56:14;;;;;;;2.50;1.13;;;;;;;;;;4862472;29;20045;-93
2022/09/03 03:59:18;;;;;;;1.52;0.90;;;;;;;;;;4853771;29;20054;-96
2022/09/03 04:03:21;;;;;;;2.60;1.00;;;;;;;;;;4871435;29;20129;-97
2022/09/03 04:06:14;;;;;;;2.42;1.27;;;;;;;;;;4895508;29;20061;-96
2022/09/03 04:09:42;;;;;;;1.88;1.10;;;;;;;;;;4932244;29;20882;-96
2022/09/03 04:13:02;;;;;;;2.90;1.20;;;;;;;;;;4947548;29;20067;-96
2022/09/03 04:16:08;;;;;;;2.22;1.00;;;;;;;;;;4914654;29;20048;-96
2022/09/03 04:19:23;;;;;;;2.30;1.08;;;;;;;;;;4944186;29;20048;-96
2022/09/03 04:22:52;;;;;;;2.75;1.13;;;;;;;;;;4892489;29;20121;-96
2022/09/03 04:26:04;;;;;;;3.42;0.93;;;;;;;;;;4883597;29;20131;-96
2022/09/03 04:29:12;;;;;;;5.95;1.10;;;;;;;;;;4893409;29;20221;-94
2022/09/03 04:34:38;;;;;;;2.60;1.10;;;;;;;;;;4880913;29;20132;-93
2022/09/03 04:37:06;;;;;;;2.70;1.10;;;;;;;;;;4873578;29;20571;-93
2022/09/03 04:39:34;;;;;;;1.67;0.90;;;;;;;;;;4887255;29;20436;-93
2022/09/03 04:42:02;;;;;;;1.48;1.00;;;;;;;;;;4868128;29;20053;-93
2022/09/03 04:44:30;;;;;;;5.00;1.15;;;;;;;;;;4883009;29;20052;-93
2022/09/03 04:46:58;;;;;;;3.97;1.10;;;;;;;;;;4867625;29;20577;-92
2022/09/03 04:49:52;;;;;;;2.13;1.00;;;;;;;;;;4879859;29;20041;-96
2022/09/03 04:53:06;;;;;;;2.53;1.02;;;;;;;;;;4916020;23;20420;-96
2022/09/03 04:55:35;;;;;;;2.05;0.98;;;;;;;;;;4903950;29;20075;-96
2022/09/03 04:58:06;;;;;;;3.85;1.20;;;;;;;;;;4901493;29;20049;-96
2022/09/03 05:00:41;;;;;;;2.08;1.10;;;;;;;;;;4924569;29;20038;-96
2022/09/03 05:06:20;;;;;;;2.15;1.20;;;;;;;;;;4978475;23;20502;-84
2022/09/03 05:08:55;;;;;;;4.40;1.00;;;;;;;;;;4902498;29;20047;-82
2022/09/03 05:11:27;;;;;;;2.95;0.82;;;;;;;;;;4918970;29;20095;-80
2022/09/03 05:14:04;;;;;;;1.95;1.17;;;;;;;;;;4898500;29;20134;-81
2022/09/03 05:17:07;;;;;;;3.38;1.00;;;;;;;;;;4899198;29;20035;-81
2022/09/03 05:19:39;;;;;;;3.13;1.08;;;;;;;;;;4923248;29;20812;-83
2022/09/03 05:22:35;;;;;;;2.30;1.00;;;;;;;;;;4919660;29;20027;-81
2022/09/03 05:25:04;;;;;;;1.95;1.13;;;;;;;;;;4909308;29;20048;-83
2022/09/03 05:27:41;;;;;;;2.90;0.98;;;;;;;;;;4940337;29;20043;-81
2022/09/03 05:30:09;;;;;;;1.77;0.98;;;;;;;;;;4909016;29;20111;-82
2022/09/03 05:33:04;;;;;;;3.50;1.10;;;;;;;;;;4917938;29;20076;-83
2022/09/03 05:35:46;;;;;;;4.53;1.15;;;;;;;;;;4908087;29;20055;-82
2022/09/03 05:38:18;;;;;;;3.17;0.90;;;;;;;;;;4933700;29;20040;-82
2022/09/03 05:40:52;;;;;;;2.35;1.02;;;;;;;;;;4935003;29;20072;-84
2022/09/03 05:43:44;;;;;;;1.77;1.00;;;;;;;;;;4919007;29;20040;-85
2022/09/03 05:46:47;;;;;;;1.80;0.85;;;;;;;;;;4904526;29;20086;-86
2022/09/03 05:50:00;;;;;;;2.83;1.00;;;;;;;;;;4919779;29;20071;-85
2022/09/03 05:54:01;;;;;;;1.65;1.00;;;;;;;;;;4921933;29;20047;-84
2022/09/03 05:57:34;;;;;;;1.38;0.80;;;;;;;;;;4836751;29;20057;-90
2022/09/03 06:00:47;;;;;;;1.98;0.82;;;;;;;;;;4805445;29;20149;-83
2022/09/03 06:03:29;;;;;;;2.28;0.88;;;;;;;;;;4801826;29;20420;-83
2022/09/03 06:06:12;;;;;;;3.28;1.00;;;;;;;;;;4803074;29;20115;-84
2022/09/03 06:08:47;;;;;;;1.83;0.85;;;;;;;;;;4816473;29;20576;-84
2022/09/03 06:11:42;;;;;;;2.03;0.95;;;;;;;;;;4798233;29;20063;-84
2022/09/03 06:14:24;;;;;;;1.50;0.90;;;;;;;;;;4813799;29;20057;-83
2022/09/03 06:16:52;;;;;;;2.03;1.00;;;;;;;;;;4812604;29;20528;-82
2022/09/03 06:19:20;;;;;;;1.60;0.88;;;;;;;;;;4815341;29;20053;-83
2022/09/03 06:22:01;;;;;;;2.42;1.13;;;;;;;;;;4782472;29;20062;-81
2022/09/03 06:24:30;;;;;;;1.90;1.00;;;;;;;;;;4798223;29;20160;-80
2022/09/03 06:27:02;;;;;;;2.90;1.08;;;;;;;;;;4815094;29;20493;-82
2022/09/03 06:29:58;;;;;;;2.05;1.00;;;;;;;;;;4814005;29;20038;-84
2022/09/03 06:32:32;;;;;;;4.30;1.00;;;;;;;;;;4837866;29;20159;-84
2022/09/03 06:35:08;;;;;;;2.28;1.08;;;;;;;;;;4909504;29;20137;-83
2022/09/03 06:37:39;;;;;;;2.08;1.27;;;;;;;;;;4932210;29;20071;-83
2022/09/03 06:40:24;;;;;;;3.58;1.13;;;;;;;;;;4913834;29;20086;-83
2022/09/03 06:43:17;;;;;;;4.03;1.23;;;;;;;;;;4896517;29;20139;-83
2022/09/03 06:46:02;;;;;;;2.60;1.15;;;;;;;;;;4912296;29;20551;-83
2022/09/03 06:48:57;;;;;;;5.75;1.20;;;;;;;;;;4930005;29;20046;-83
2022/09/03 06:51:30;;;;;;;2.78;1.15;;;;;;;;;;4931781;29;20111;-82
2022/09/03 06:54:17;;;;;;;3.85;1.10;;;;;;;;;;4910766;29;20064;-83
2022/09/03 06:56:44;;;;;;;1.95;1.17;;;;;;;;;;4915888;29;20630;-83
2022/09/03 06:59:13;;;;;;;7.03;1.23;;;;;;;;;;4926455;29;20047;-83
2022/09/03 07:01:44;;;;;;;2.35;1.13;;;;;;;;;;4927961;29;20142;-82
2022/09/03 07:04:15;;;;;;;2.60;1.00;;;;;;;;;;4929362;29;20360;-81
2022/09/03 07:07:12;;;;;;;2.20;1.00;;;;;;;;;;4881176;29;20051;-81
2022/09/03 07:09:54;;;;;;;1.90;1.05;;;;;;;;;;4875307;29;20048;-81
2022/09/03 07:12:48;;;;;;;2.35;1.10;;;;;;;;;;4889333;29;20733;-81
2022/09/03 07:15:16;;;;;;;3.42;1.20;;;;;;;;;;4907469;29;20227;-81
2022/09/03 07:17:46;;;;;;;4.07;1.20;;;;;;;;;;4892653;29;20048;-81
2022/09/03 07:20:21;;;;;;;4.50;1.30;;;;;;;;;;4890210;29;20106;-81
2022/09/03 07:22:59;;;;;;;2.95;1.20;;;;;;;;;;4890221;29;20052;-84
2022/09/03 07:25:42;;;;;;;2.20;0.95;;;;;;;;;;4873568;29;20040;-82
2022/09/03 07:28:54;;;;;;;2.25;1.10;;;;;;;;;;4914100;29;20054;-82
2022/09/03 07:31:41;;;;;;;2.72;1.17;;;;;;;;;;4915151;29;20055;-83
2022/09/03 07:34:34;;;;;;;4.10;1.00;;;;;;;;;;4878837;29;20141;-81
2022/09/03 07:37:45;;;;;;;2.85;1.20;;;;;;;;;;4914858;29;20508;-82
2022/09/03 07:40:12;;;;;;;5.70;1.30;;;;;;;;;;4861210;29;20048;-83
2022/09/03 07:42:40;;;;;;;1.77;0.95;;;;;;;;;;4879901;29;20154;-82
2022/09/03 07:46:00;;;;;;;2.25;1.20;;;;;;;;;;4914822;29;20269;-82
2022/09/03 07:48:55;;;;;;;3.47;1.30;;;;;;;;;;4898748;29;20075;-82
2022/09/03 07:51:27;;;;;;;2.17;1.05;;;;;;;;;;4899231;29;20126;-82
2022/09/03 07:53:58;;;;;;;2.67;1.40;;;;;;;;;;4894004;29;20134;-82
2022/09/03 07:57:16;;;;;;;3.70;1.00;;;;;;;;;;4911161;29;20040;-83
2022/09/03 07:59:44;;;;;;;4.03;1.10;;;;;;;;;;4911789;29;20054;-82
2022/09/03 08:02:12;;;;;;;3.22;0.82;;;;;;;;;;4910407;29;20046;-82
2022/09/03 08:05:04;;;;;;;2.20;0.90;;;;;;;;;;4918812;29;20040;-83
2022/09/03 08:07:32;;;;;;;4.25;1.05;;;;;;;;;;4916651;29;20134;-82
2022/09/03 08:10:15;;;;;;;3.25;1.10;;;;;;;;;;4931017;29;20053;-82
2022/09/03 08:12:42;;;;;;;7.20;1.17;;;;;;;;;;4911288;29;20424;-82
2022/09/03 08:15:17;;;;;;;2.88;1.00;;;;;;;;;;4912305;29;20103;-82
2022/09/03 08:17:48;;;;;;;2.25;0.85;;;;;;;;;;4876357;29;20066;-82
2022/09/03 08:20:19;;;;;;;2.30;1.30;;;;;;;;;;4932649;29;20048;-82
2022/09/03 08:23:13;;;;;;;2.60;1.00;;;;;;;;;;4911764;29;20043;-83
2022/09/03 08:25:46;;;;;;;2.15;0.90;;;;;;;;;;4928268;29;20047;-82
2022/09/03 08:28:18;;;;;;;0.98;0.50;;;;;;;;;;4929529;29;20066;-82
2022/09/03 08:31:25;;;;;;;2.40;1.15;;;;;;;;;;4919837;29;20360;-82
2022/09/03 08:34:06;;;;;;;3.55;1.25;;;;;;;;;;4913840;29;20407;-84
2022/09/03 08:36:36;;;;;;;3.17;1.15;;;;;;;;;;4915582;29;20054;-81
2022/09/03 08:39:28;;;;;;;2.45;1.10;;;;;;;;;;4893291;29;20039;-81
2022/09/03 08:42:24;;;;;;;3.58;1.30;;;;;;;;;;4915345;29;20063;-83
2022/09/03 08:45:01;;;;;;;2.70;1.05;;;;;;;;;;4911468;29;20058;-83
2022/09/03 08:47:47;;;;;;;3.15;1.00;;;;;;;;;;4913299;29;20412;-83
2022/09/03 08:50:20;;;;;;;2.42;0.90;;;;;;;;;;4902334;29;20048;-82
2022/09/03 08:53:11;;;;;;;5.25;0.90;;;;;;;;;;4933473;29;20059;-83
2022/09/03 08:56:06;;;;;;;2.42;1.20;;;;;;;;;;4913372;29;20070;-82
2022/09/03 08:58:42;;;;;;;4.25;0.95;;;;;;;;;;4910255;29;20067;-82
2022/09/03 09:01:30;;;;;;;4.00;1.30;;;;;;;;;;4929275;29;20049;-83
2022/09/03 09:04:49;;;;;;;2.58;1.00;;;;;;;;;;4914997;29;20040;-83
2022/09/03 09:08:16;;;;;;;3.13;1.33;;;;;;;;;;4900521;29;20647;-82
2022/09/03 09:11:36;;;;;;;4.57;1.20;;;;;;;;;;4827025;29;20140;-83
2022/09/03 09:15:04;;;;;;;2.78;0.98;;;;;;;;;;4837024;29;20472;-84
2022/09/03 09:18:01;;;;;;;2.75;1.10;;;;;;;;;;4798721;29;20103;-84
2022/09/03 09:20:41;;;;;;;1.90;1.00;;;;;;;;;;4797854;29;20265;-83
2022/09/03 09:23:31;;;;;;;5.68;1.13;;;;;;;;;;4804588;29;20050;-83
2022/09/03 09:29:06;;;;;;;2.70;0.80;;;;;;;;;;4814264;29;20077;-82
2022/09/03 09:31:38;;;;;;;2.28;1.25;;;;;;;;;;4814418;29;20145;-83
2022/09/03 09:34:53;;;;;;;1.55;1.08;;;;;;;;;;4813755;29;20051;-82
2022/09/03 09:37:57;;;;;;;2.92;1.00;;;;;;;;;;4815496;29;20066;-83
2022/09/03 09:40:44;;;;;;;2.65;0.90;;;;;;;;;;4796831;29;20062;-82
2022/09/03 09:43:30;;;;;;;2.88;0.90;;;;;;;;;;4786990;29;20046;-82
2022/09/03 09:46:31;;;;;;;1.77;0.90;;;;;;;;;;4783447;29;20050;-82
2022/09/03 09:49:37;;;;;;;3.13;1.10;;;;;;;;;;4883713;29;20055;-83
2022/09/03 09:52:11;;;;;;;;;;;;;;;;;;4900848;29;20056;-82
2022/09/03 09:55:09;;;;;;;2.30;0.85;;;;;;;;;;4897465;29;19937;-83
2022/09/03 09:57:42;;;;;;;1.50;0.70;;;;;;;;;;4905354;29;20062;-82
2022/09/03 10:00:14;;;;;;;1.83;1.00;;;;;;;;;;4892356;29;20049;-82
2022/09/03 10:02:50;;;;;;;4.63;1.00;;;;;;;;;;4913097;29;20065;-81
2022/09/03 10:05:35;;;;;;;4.15;1.20;;;;;;;;;;4891442;29;20051;-81
2022/09/03 10:08:20;;;;;;;4.43;1.00;;;;;;;;;;4884761;29;20051;-80
2022/09/03 10:10:49;;;;;;;2.83;0.88;;;;;;;;;;4886088;29;20056;-80
2022/09/03 10:13:49;;;;;;;4.95;1.10;;;;;;;;;;4894542;29;20506;-82
2022/09/03 10:17:28;;;;;;;2.20;0.93;;;;;;;;;;4901905;29;20043;-87
2022/09/03 10:20:57;;;;;;;2.45;0.80;;;;;;;;;;4883430;29;20533;-85
2022/09/03 10:24:26;;;;;;;2.55;0.80;;;;;;;;;;4847274;29;20604;-83
2022/09/03 10:31:30;;;;;;;3.80;1.00;;;;;;;;;;4746055;30;20105;-85
2022/09/03 10:34:52;;;;;;;6.47;1.00;;;;;;;;;;4743970;30;20214;-85
2022/09/03 10:38:52;;;;;;;4.05;0.90;;;;;;;;;;4772565;29;20533;-85
2022/09/03 10:42:12;;;;;;;3.97;1.00;;;;;;;;;;4759762;29;20070;-83
2022/09/03 10:46:28;;;;;;;3.13;0.85;;;;;;;;;;4756267;30;20573;-85
2022/09/03 10:50:09;;;;;;;5.07;1.10;;;;;;;;;;4744618;29;20546;-86
2022/09/03 10:53:26;;;;;;;1.25;0.80;;;;;;;;;;4744111;29;20059;-86
2022/09/03 10:56:16;;;;;;;2.72;0.90;;;;;;;;;;4761521;29;21060;-85
2022/09/03 10:59:23;;;;;;;2.30;0.70;;;;;;;;;;4807347;29;20054;-84
2022/09/03 11:06:11;;;;;;;3.88;0.90;;;;;;;;;;4808778;29;20531;-85
2022/09/03 11:09:45;;;;;;;1.60;0.80;;;;;;;;;;4802359;29;20140;-85
2022/09/03 11:13:01;;;;;;;1.60;0.80;;;;;;;;;;4808867;29;20050;-85
2022/09/03 11:17:05;;;;;;;4.63;1.23;;;;;;;;;;4850473;29;20113;-85
2022/09/03 11:21:52;;;;;;;2.80;0.93;;;;;;;;;;4865797;29;20059;-84
2022/09/03 11:25:18;;;;;;;1.52;0.68;;;;;;;;;;4837571;29;20498;-85
2022/09/03 11:28:39;;;;;;;2.95;0.80;;;;;;;;;;4815202;29;20044;-85
2022/09/03 11:31:49;;;;;;;4.38;1.15;;;;;;;;;;4827518;29;20058;-85
2022/09/03 11:34:50;;;;;;;2.30;0.90;;;;;;;;;;4802025;29;20054;-82
2022/09/03 11:42:07;;;;;;;2.35;0.90;;;;;;;;;;4760747;30;20066;-83
2022/09/03 11:45:45;;;;;;;1.98;0.80;;;;;;;;;;4765698;30;20063;-84
2022/09/03 11:48:38;;;;;;;2.00;0.90;;;;;;;;;;4705492;30;20069;-84
2022/09/03 11:51:54;;;;;;;2.55;0.90;;;;;;;;;;4705874;30;20503;-85
2022/09/03 11:54:54;;;;;;;2.30;0.90;;;;;;;;;;4669594;30;20069;-83
2022/09/03 11:57:30;;;;;;;2.70;1.10;;;;;;;;;;4656621;30;20081;-83
2022/09/03 12:00:44;;;;;;;2.38;0.88;;;;;;;;;;4677744;30;20045;-84
2022/09/03 12:04:43;;;;;;;4.05;0.90;;;;;;;;;;4700059;30;20126;-84
2022/09/03 12:08:07;;;;;;;2.33;1.00;;;;;;;;;;4736110;30;20545;-85
2022/09/03 12:11:51;;;;;;;1.70;0.68;;;;;;;;;;4750348;30;20082;-84
2022/09/03 12:15:25;;;;;;;2.03;0.85;;;;;;;;;;4737587;30;20047;-84
2022/09/03 12:19:03;;;;;;;1.98;0.93;;;;;;;;;;4804387;29;21060;-84
2022/09/03 12:22:16;;;;;;;3.42;0.90;;;;;;;;;;4803013;29;20058;-84
2022/09/03 12:24:44;;;;;;;2.45;1.02;;;;;;;;;;4835019;29;20044;-83
2022/09/03 12:28:22;;;;;;;3.20;1.00;;;;;;;;;;4879981;29;20040;-83
2022/09/03 12:31:48;;;;;;;3.25;0.80;;;;;;;;;;4859722;29;20052;-84
2022/09/03 12:35:20;;;;;;;4.43;0.80;;;;;;;;;;4872437;29;20048;-83
2022/09/03 12:38:37;;;;;;;1.90;0.90;;;;;;;;;;4884041;29;20045;-83
2022/09/03 12:41:30;;;;;;;4.00;0.80;;;;;;;;;;4869071;29;20063;-84
2022/09/03 12:44:28;;;;;;;4.63;1.13;;;;;;;;;;4882924;29;20133;-82
2022/09/03 12:47:39;;;;;;;3.70;1.10;;;;;;;;;;4872749;29;20055;-83
2022/09/03 12:50:12;;;;;;;4.13;0.80;;;;;;;;;;4857560;29;20489;-82
2022/09/03 12:53:13;;;;;;;3.35;0.90;;;;;;;;;;4855200;29;20117;-83
2022/09/03 12:56:09;;;;;;;2.60;0.70;;;;;;;;;;4853146;29;20081;-84
2022/09/03 13:09:25;;;;;;;2.38;0.80;;;;;;;;;;4865334;29;20045;-86
2022/09/03 13:13:20;;;;;;;5.32;1.33;;;;;;;;;;4810101;29;20058;-85
2022/09/03 13:22:21;;;;;;;4.38;0.90;;;;;;;;;;4696039;30;20218;-86
2022/09/03 13:26:51;;;;;;;1.88;0.88;;;;;;;;;;4663768;30;20152;-86
2022/09/03 13:30:13;;;;;;;2.25;1.05;;;;;;;;;;4624007;30;20062;-85
2022/09/03 13:34:27;;;;;;;1.40;0.60;;;;;;;;;;4598424;30;20105;-85
2022/09/03 13:38:12;;;;;;;3.22;1.00;;;;;;;;;;4631008;30;20058;-85
2022/09/03 13:41:45;;;;;;;3.38;1.27;;;;;;;;;;4619694;30;20059;-85
2022/09/03 13:44:45;;;;;;;1.52;0.70;;;;;;;;;;4594890;31;20068;-84
2022/09/03 13:51:48;;;;;;;1.75;0.73;;;;;;;;;;4608219;30;20002;-85
2022/09/03 13:54:53;;;;;;;2.95;0.82;;;;;;;;;;4630959;30;20446;-86
2022/09/03 13:58:15;;;;;;;2.83;0.68;;;;;;;;;;4639340;30;20099;-85
2022/09/03 14:01:50;;;;;;;3.70;0.95;;;;;;;;;;4645831;30;20126;-87
2022/09/03 14:05:27;;;;;;;2.10;0.80;;;;;;;;;;4646612;30;20062;-85
2022/09/03 14:13:03;;;;;;;1.73;0.90;;;;;;;;;;4723635;30;20133;-85
2022/09/03 14:20:58;;;;;;;1.48;0.60;;;;;;;;;;4724944;30;20071;-86
2022/09/03 14:24:30;;;;;;;1.27;0.70;;;;;;;;;;4720807;30;20056;-86
2022/09/03 14:28:12;;;;;;;2.58;0.90;;;;;;;;;;4782007;29;20086;-86
2022/09/03 14:32:24;;;;;;;1.58;0.80;;;;;;;;;;4764434;30;20121;-85
2022/09/03 14:36:17;;;;;;;4.15;1.17;;;;;;;;;;4736695;30;20052;-86
2022/09/03 14:40:03;;;;;;;6.20;0.90;;;;;;;;;;4748357;30;20056;-86
2022/09/03 14:43:49;;;;;;;2.47;0.90;;;;;;;;;;4732797;30;20108;-87
2022/09/03 14:48:34;;;;;;;2.85;0.75;;;;;;;;;;4728074;29;20078;-87
2022/09/03 14:52:02;;;;;;;4.05;0.82;;;;;;;;;;4730644;30;20056;-86
2022/09/03 14:56:07;;;;;;;4.50;1.00;;;;;;;;;;4716800;30;20126;-87
2022/09/03 15:00:37;;;;;;;0.80;0.60;;;;;;;;;;4689614;30;20061;-87
2022/09/03 15:03:59;;;;;;;2.30;0.73;;;;;;;;;;4692338;30;20072;-87
2022/09/03 15:07:51;;;;;;;2.28;0.80;;;;;;;;;;4692021;30;20056;-85
2022/09/03 15:10:59;;;;;;;2.53;0.95;;;;;;;;;;4710677;30;20061;-84
2022/09/03 15:13:51;;;;;;;4.57;1.45;;;;;;;;;;4719854;30;20124;-84
2022/09/03 15:16:55;;;;;;;2.85;0.90;;;;;;;;;;4703330;30;20088;-85
2022/09/03 15:20:08;;;;;;;2.05;0.80;;;;;;;;;;4740378;30;20059;-87
2022/09/03 15:23:17;;;;;;;3.20;0.90;;;;;;;;;;4730374;30;20147;-87
2022/09/03 15:26:45;;;;;;;2.67;1.08;;;;;;;;;;4751796;29;20056;-87
2022/09/03 15:30:56;;;;;;;8.00;1.10;;;;;;;;;;4848155;29;20079;-87
2022/09/03 15:34:20;;;;;;;3.08;1.10;;;;;;;;;;4837059;29;20140;-87
2022/09/03 15:37:57;;;;;;;2.28;1.02;;;;;;;;;;4825606;29;20555;-88
2022/09/03 15:41:49;;;;;;;3.75;1.05;;;;;;;;;;4791318;29;20076;-88
2022/09/03 15:46:32;;;;;;;4.63;1.10;;;;;;;;;;4805987;29;20051;-87
2022/09/03 16:09:02;;;;;;;2.30;1.10;;;;;;;;;;4650262;30;20118;-87
2022/09/03 16:18:13;;;;;;;2.03;0.68;;;;;;;;;;4665910;30;20046;-89
2022/09/03 16:27:57;;;;;;;3.85;1.00;;;;;;;;;;4698088;30;20140;-88
2022/09/03 16:33:21;;;;;;;;;;;;;;;;;;;;;
2022/09/03 16:57:11;;;;;;;4.05;0.95;;;;;;;;;;4631296;30;20485;-86
2022/09/03 17:00:50;;;;;;;3.15;0.90;;;;;;;;;;4590426;31;20062;-88
2022/09/03 17:04:59;;;;;;;5.13;1.25;;;;;;;;;;4608009;31;20059;-88
2022/09/03 17:12:36;;;;;;;2.63;1.00;;;;;;;;;;4664892;30;20030;-84
2022/09/03 17:16:08;;;;;;;4.70;1.00;;;;;;;;;;4629606;31;20058;-85
2022/09/03 17:23:53;;;;;;;1.98;1.05;;;;;;;;;;4649393;30;20192;-87
2022/09/03 17:32:44;;;;;;;2.75;1.33;;;;;;;;;;4644017;30;20066;-87
2022/09/03 17:43:26;;;;;;;5.05;1.17;;;;;;;;;;4933376;28;20043;-85
2022/09/03 17:47:53;;;;;;;4.72;1.17;;;;;;;;;;4921781;29;20063;-85
2022/09/03 17:51:51;;;;;;;3.05;1.00;;;;;;;;;;4869385;29;20109;-84
2022/09/03 18:03:29;;;;;;;3.47;1.10;;;;;;;;;;4808390;29;20074;-85
2022/09/03 18:06:56;;;;;;;3.28;1.20;;;;;;;;;;5092920;28;20468;-96
2022/09/03 18:09:41;;;;;;;2.67;1.35;;;;;;;;;;5038466;28;20057;-96
2022/09/03 18:12:25;;;;;;;2.28;1.10;;;;;;;;;;5040848;28;20045;-96
2022/09/03 18:15:19;;;;;;;4.60;1.20;;;;;;;;;;5038336;28;20043;-96
2022/09/03 18:17:57;;;;;;;5.20;1.15;;;;;;;;;;5038469;28;20045;-96
2022/09/03 20:11:17;;;;;;;4.57;2.38;;;;;;;;;;5054142;28;20091;-96
2022/09/03 20:16:44;;;;;;;5.90;2.00;;;;;;;;;;5021224;28;20422;-95
2022/09/03 20:19:24;;;;;;;5.32;2.10;;;;;;;;;;5037866;28;20120;-96
2022/09/03 20:22:23;;;;;;;4.28;2.20;;;;;;;;;;5021253;28;20469;-95
2022/09/03 20:25:03;;;;;;;7.85;2.20;;;;;;;;;;5020241;28;20049;-95
2022/09/03 20:28:03;;;;;;;4.97;2.30;;;;;;;;;;5019809;28;20052;-96
2022/09/03 20:31:36;;;;;;;6.05;2.30;;;;;;;;;;5037870;28;20048;-96
2022/09/03 20:34:38;;;;;;;6.30;2.28;;;;;;;;;;5021304;28;20046;-96
2022/09/03 20:37:35;;;;;;;5.80;2.33;;;;;;;;;;5023425;28;20045;-96
2022/09/03 20:40:10;;;;;;;3.75;1.75;;;;;;;;;;5022506;28;20046;-94
2022/09/03 20:43:09;;;;;;;3.97;1.27;;;;;;;;;;5022749;28;20065;-96
2022/09/03 20:46:04;;;;;;;2.50;1.23;;;;;;;;;;5037779;28;20036;-95
2022/09/03 20:48:56;;;;;;;3.75;1.38;;;;;;;;;;5053929;28;20041;-95
2022/09/03 20:51:37;;;;;;;1.88;1.00;;;;;;;;;;5021873;28;20449;-95
2022/09/03 20:54:32;;;;;;;2.53;1.02;;;;;;;;;;5021824;28;20096;-96
2022/09/03 20:57:26;;;;;;;2.08;1.05;;;;;;;;;;5039909;28;20260;-95
2022/09/03 21:00:14;;;;;;;2.83;1.20;;;;;;;;;;5041112;28;20049;-95
2022/09/03 21:03:02;;;;;;;3.80;1.27;;;;;;;;;;5052785;23;20083;-80
2022/09/03 21:05:56;;;;;;;3.10;1.27;;;;;;;;;;5038255;28;20064;-82
2022/09/03 21:08:58;;;;;;;2.95;1.13;;;;;;;;;;5035933;28;20057;-83
2022/09/03 21:12:01;;;;;;;4.25;1.70;;;;;;;;;;5022410;28;20041;-81
2022/09/03 21:14:32;;;;;;;8.82;1.55;;;;;;;;;;5035094;28;20568;-81
2022/09/03 21:17:03;;;;;;;7.03;1.67;;;;;;;;;;5030407;28;20037;-82
2022/09/03 21:20:01;;;;;;;9.57;2.03;;;;;;;;;;5035545;28;20131;-80
2022/09/03 21:22:39;;;;;;;5.10;2.03;;;;;;;;;;5035980;28;20165;-82
2022/09/03 21:25:19;;;;;;;4.78;1.90;;;;;;;;;;5034798;28;20081;-81
2022/09/03 21:28:37;;;;;;;8.25;1.92;;;;;;;;;;5034725;28;20053;-82
2022/09/03 21:31:33;;;;;;;3.80;1.30;;;;;;;;;;5030983;28;20056;-82
2022/09/03 21:34:19;;;;;;;2.22;0.98;;;;;;;;;;5017355;28;20121;-82
2022/09/03 21:36:51;;;;;;;2.25;1.10;;;;;;;;;;4986099;28;20044;-81
2022/09/03 21:39:41;;;;;;;2.03;0.88;;;;;;;;;;5003611;28;20063;-82
2022/09/03 21:42:33;;;;;;;3.85;1.20;;;;;;;;;;5024619;28;20076;-82
2022/09/03 21:45:19;;;;;;;3.78;0.90;;;;;;;;;;5015437;28;20045;-82
2022/09/03 21:47:50;;;;;;;3.42;1.00;;;;;;;;;;5009855;28;20128;-83
2022/09/03 21:51:23;;;;;;;3.70;0.90;;;;;;;;;;5027220;28;20304;-83
2022/09/03 21:54:29;;;;;;;2.45;0.95;;;;;;;;;;5016794;28;20045;-82
2022/09/03 21:57:17;;;;;;;2.20;0.93;;;;;;;;;;5019607;28;20128;-82
2022/09/03 22:00:31;;;;;;;2.45;1.20;;;;;;;;;;5022675;28;20049;-83
2022/09/03 22:03:16;;;;;;;2.83;0.95;;;;;;;;;;5018661;28;20144;-83
2022/09/03 22:06:30;;;;;;;2.88;1.20;;;;;;;;;;5023432;28;20113;-82
2022/09/03 22:09:52;;;;;;;4.70;1.40;;;;;;;;;;5047278;28;20356;-81
2022/09/03 22:12:44;;;;;;;3.97;1.20;;;;;;;;;;5017549;28;20025;-81
2022/09/03 22:15:13;;;;;;;2.78;1.00;;;;;;;;;;5002283;28;20137;-81
2022/09/03 22:17:51;;;;;;;3.75;1.40;;;;;;;;;;5036019;28;20136;-81
2022/09/03 22:20:51;;;;;;;3.00;1.20;;;;;;;;;;5035408;28;20037;-82
2022/09/03 22:23:54;;;;;;;7.65;1.70;;;;;;;;;;5018821;28;20414;-83
2022/09/03 22:27:06;;;;;;;4.28;1.40;;;;;;;;;;5037999;28;20045;-82
2022/09/03 22:30:06;;;;;;;4.82;1.48;;;;;;;;;;5043159;28;20053;-83
2022/09/03 22:33:18;;;;;;;6.72;2.58;;;;;;;;;;5035838;28;20035;-82
2022/09/03 22:36:10;;;;;;;6.32;2.50;;;;;;;;;;5025394;28;20045;-81
2022/09/03 22:39:05;;;;;;;7.07;3.42;;;;;;;;;;5021179;28;20046;-83
2022/09/03 22:42:30;;;;;;;6.95;2.95;;;;;;;;;;5039631;28;20096;-83
2022/09/03 22:47:09;;;;;;;10.30;3.90;;;;;;;;;;5036302;28;20413;-84
2022/09/03 22:50:27;;;;;;;8.23;3.13;;;;;;;;;;5035073;28;20041;-84
2022/09/03 22:53:20;;;;;;;8.05;3.35;;;;;;;;;;5034828;28;20063;-83
2022/09/03 22:59:50;;;;;;;8.25;2.80;;;;;;;;;;5040631;28;20564;-83
2022/09/03 23:03:07;;;;;;;5.63;2.40;;;;;;;;;;5027172;28;20132;-84
2022/09/03 23:07:10;;;;;;;5.60;2.72;;;;;;;;;;4977877;28;21522;-85